createdAt,value
2022-12-12T00:03:02.601Z,93739.88
2022-12-12T00:06:06.261Z,93739.88
2022-12-12T00:09:09.578Z,93761.97
2022-12-12T00:12:14.034Z,93764.63
2022-12-12T00:15:17.157Z,93764.16
2022-12-12T00:18:20.162Z,93779.81
2022-12-12T00:21:25.822Z,93783.91
2022-12-12T00:24:28.831Z,93792.34
2022-12-12T00:27:34.663Z,93790.34
2022-12-12T00:30:37.705Z,93783.91
2022-12-12T00:33:40.999Z,93773.25
2022-12-12T00:36:44.029Z,93774.03
2022-12-12T00:39:47.495Z,93783.91
2022-12-12T00:42:51.962Z,93785.03
2022-12-12T00:45:55.212Z,93772.50
2022-12-12T00:48:59.769Z,93776.25
2022-12-12T00:52:02.945Z,93766.72
2022-12-12T00:55:07.128Z,93782.69
2022-12-12T00:58:11.593Z,93778.16
2022-12-12T01:01:17.708Z,93790.69
2022-12-12T01:04:20.840Z,93795.25
2022-12-12T01:07:23.818Z,93800.56
2022-12-12T01:10:26.875Z,93797.91
2022-12-12T01:13:31.643Z,93790.25
2022-12-12T01:16:34.963Z,93794.47
2022-12-12T01:19:38.040Z,93805.13
2022-12-12T01:22:41.229Z,93786.03
2022-12-12T01:25:44.272Z,93787.59
2022-12-12T01:28:48.741Z,93789.47
2022-12-12T01:31:51.951Z,93784.16
2022-12-12T01:34:54.997Z,93793.25
2022-12-12T01:37:58.011Z,93796.69
2022-12-12T01:41:01.111Z,93794.03
2022-12-12T01:44:28.731Z,93800.13
2022-12-12T01:47:31.735Z,93813.44
2022-12-12T01:50:34.859Z,93822.53
2022-12-12T01:53:38.610Z,93810.00
2022-12-12T01:56:44.350Z,93816.78
2022-12-12T01:59:49.064Z,93816.78
2022-12-12T02:02:53.829Z,93814.09
2022-12-12T02:06:01.254Z,93817.56
2022-12-12T02:09:08.555Z,93834.63
2022-12-12T02:12:15.057Z,93836.97
2022-12-12T02:15:19.587Z,93831.97
2022-12-12T02:18:29.917Z,93837.63
2022-12-12T02:21:42.974Z,93845.28
2022-12-12T02:25:18.847Z,93835.75
2022-12-12T02:28:42.025Z,93830.41
2022-12-12T02:31:53.156Z,93842.63
2022-12-12T02:35:05.665Z,93839.53
2022-12-12T02:38:19.728Z,93845.63
2022-12-12T02:41:29.565Z,93836.84
2022-12-12T02:44:41.155Z,93842.19
2022-12-12T02:47:49.365Z,93845.16
2022-12-12T02:50:55.514Z,93837.16
2022-12-12T02:54:00.255Z,93832.94
2022-12-12T02:57:03.826Z,93827.63
2022-12-12T03:00:10.056Z,93821.53
2022-12-12T03:03:47.096Z,93828.41
2022-12-12T03:07:19.495Z,93834.06
2022-12-12T03:10:35.900Z,93819.97
2022-12-12T03:13:47.134Z,93821.53
2022-12-12T03:16:56.491Z,93819.97
2022-12-12T03:20:08.119Z,93826.06
2022-12-12T03:23:16.561Z,93821.84
2022-12-12T03:26:26.619Z,93829.41
2022-12-12T03:29:33.492Z,93824.53
2022-12-12T03:32:58.005Z,93832.50
2022-12-12T03:36:08.411Z,93830.19
2022-12-12T03:39:17.866Z,93841.59
2022-12-12T03:42:25.027Z,93825.63
2022-12-12T03:45:33.818Z,93852.25
2022-12-12T03:48:41.991Z,93849.59
2022-12-12T03:51:51.203Z,93864.78
2022-12-12T03:55:00.147Z,93864.47
2022-12-12T03:58:10.260Z,93864.78
2022-12-12T04:01:15.333Z,93872.00
2022-12-12T04:04:25.158Z,93865.13
2022-12-12T04:07:34.544Z,93863.22
2022-12-12T04:11:16.904Z,93875.00
2022-12-12T04:14:35.064Z,93864.00
2022-12-12T04:17:43.470Z,93864.34
2022-12-12T04:21:14.965Z,93882.31
2022-12-12T04:24:26.397Z,93887.19
2022-12-12T04:27:36.074Z,93885.09
2022-12-12T04:30:39.446Z,93898.06
2022-12-12T04:33:49.939Z,93890.84
2022-12-12T04:36:54.390Z,93892.06
2022-12-12T04:40:01.375Z,93893.19
2022-12-12T04:43:07.740Z,93888.97
2022-12-12T04:46:15.044Z,93905.72
2022-12-12T04:49:21.691Z,93888.31
2022-12-12T04:52:27.056Z,93886.41
2022-12-12T04:55:34.421Z,93885.97
2022-12-12T04:58:38.626Z,93875.44
2022-12-12T05:01:53.748Z,93881.97
2022-12-12T05:05:00.427Z,93892.00
2022-12-12T05:08:07.936Z,93898.09
2022-12-12T05:11:13.272Z,93901.09
2022-12-12T05:14:17.465Z,93902.00
2022-12-12T05:17:27.479Z,93896.66
2022-12-12T05:20:30.563Z,93894.25
2022-12-12T05:23:35.012Z,93889.78
2022-12-12T05:26:39.821Z,93909.84
2022-12-12T05:29:42.860Z,93900.88
2022-12-12T05:32:46.021Z,93893.53
2022-12-12T05:35:49.120Z,93910.16
2022-12-12T05:38:52.203Z,93896.41
2022-12-12T05:41:56.620Z,93914.59
2022-12-12T05:44:59.671Z,93918.38
2022-12-12T05:48:02.754Z,93903.16
2022-12-12T05:51:06.441Z,93910.72
2022-12-12T05:54:09.505Z,93901.94
2022-12-12T05:57:13.961Z,93897.06
2022-12-12T06:00:17.495Z,93905.38
2022-12-12T06:03:20.678Z,93917.25
2022-12-12T06:06:24.120Z,93912.59
2022-12-12T06:09:27.091Z,93897.72
2022-12-12T06:12:31.464Z,93903.84
2022-12-12T06:15:34.639Z,93911.03
2022-12-12T06:18:38.067Z,93926.25
2022-12-12T06:21:41.264Z,93938.44
2022-12-12T06:24:44.405Z,93939.22
2022-12-12T06:27:48.816Z,93952.53
2022-12-12T06:30:51.883Z,93948.31
2022-12-12T06:33:54.891Z,93958.97
2022-12-12T06:36:57.930Z,93960.50
2022-12-12T06:40:00.933Z,93968.06
2022-12-12T06:43:05.273Z,93973.50
2022-12-12T06:46:11.780Z,93957.53
2022-12-12T06:49:14.819Z,93984.13
2022-12-12T06:52:17.809Z,93975.81
2022-12-12T06:55:20.852Z,93989.91
2022-12-12T06:58:25.280Z,93964.06
2022-12-12T07:01:28.550Z,93993.34
2022-12-12T07:04:31.743Z,93986.47
2022-12-12T07:07:34.848Z,93998.69
2022-12-12T07:10:38.197Z,93990.03
2022-12-12T07:13:43.058Z,93996.38
2022-12-12T07:16:46.051Z,94009.16
2022-12-12T07:19:49.096Z,94001.84
2022-12-12T07:22:52.212Z,93992.28
2022-12-12T07:25:55.273Z,93999.06
2022-12-12T07:28:59.771Z,93998.28
2022-12-12T07:32:02.829Z,94012.69
2022-12-12T07:35:06.436Z,94031.78
2022-12-12T07:38:10.438Z,94029.91
2022-12-12T07:41:15.076Z,94051.19
2022-12-12T07:44:19.513Z,94052.63
2022-12-12T07:47:22.482Z,94043.09
2022-12-12T07:50:25.572Z,94052.97
2022-12-12T07:53:29.053Z,94046.09
2022-12-12T07:56:32.096Z,94051.75
2022-12-12T07:59:36.498Z,94050.16
2022-12-12T08:02:39.534Z,94065.06
2022-12-12T08:05:42.822Z,94068.34
2022-12-12T08:08:46.601Z,94073.66
2022-12-12T08:11:49.660Z,94062.25
2022-12-12T08:14:54.172Z,94084.31
2022-12-12T08:17:57.196Z,94077.44
2022-12-12T08:21:00.194Z,94091.53
2022-12-12T08:24:04.153Z,94084.66
2022-12-12T08:27:10.823Z,94083.88
2022-12-12T08:30:19.916Z,94099.84
2022-12-12T08:33:22.907Z,94081.22
2022-12-12T08:36:30.157Z,94102.19
2022-12-12T08:39:33.206Z,94093.41
2022-12-12T08:42:36.223Z,94093.41
2022-12-12T08:45:40.905Z,94104.50
2022-12-12T08:48:44.343Z,94095.75
2022-12-12T08:51:47.412Z,94082.75
2022-12-12T08:54:50.507Z,94087.75
2022-12-12T08:57:53.481Z,94090.75
2022-12-12T09:00:57.875Z,94078.66
2022-12-12T09:04:00.853Z,94082.44
2022-12-12T09:07:08.415Z,94074.78
2022-12-12T09:10:11.840Z,94083.53
2022-12-12T09:13:14.791Z,94086.97
2022-12-12T09:16:19.462Z,94081.66
2022-12-12T09:19:22.570Z,94076.34
2022-12-12T09:22:25.653Z,94073.66
2022-12-12T09:25:28.869Z,94072.91
2022-12-12T09:28:31.990Z,94082.44
2022-12-12T09:31:36.504Z,94077.44
2022-12-12T09:34:39.790Z,94068.34
2022-12-12T09:37:42.795Z,94064.13
2022-12-12T09:40:53.231Z,94048.94
2022-12-12T09:43:58.950Z,94057.25
2022-12-12T09:47:08.988Z,94046.59
2022-12-12T09:50:19.836Z,94049.25
2022-12-12T09:53:26.620Z,94049.72
2022-12-12T09:56:36.548Z,94037.50
2022-12-12T09:59:45.370Z,94041.28
2022-12-12T10:03:03.684Z,94051.91
2022-12-12T10:09:59.242Z,94044.72
2022-12-12T10:13:06.279Z,94030.28
2022-12-12T10:16:12.282Z,94037.50
2022-12-12T10:19:23.315Z,94046.25
2022-12-12T10:22:36.095Z,94045.03
2022-12-12T10:25:46.163Z,94045.16
2022-12-12T10:28:53.330Z,94031.84
2022-12-12T10:32:08.295Z,94041.41
2022-12-12T10:35:26.449Z,94026.19
2022-12-12T10:38:50.210Z,94024.00
2022-12-12T10:42:02.219Z,93998.16
2022-12-12T10:45:31.711Z,93996.72
2022-12-12T10:48:35.220Z,93992.94
2022-12-12T10:51:39.767Z,93970.09
2022-12-12T10:54:47.694Z,93970.09
2022-12-12T10:58:03.793Z,93959.44
2022-12-12T11:01:13.568Z,93978.84
2022-12-12T11:04:16.872Z,93988.72
2022-12-12T11:07:23.651Z,93990.28
2022-12-12T11:10:33.938Z,93991.41
2022-12-12T11:13:46.358Z,93978.09
2022-12-12T11:16:49.514Z,93991.41
2022-12-12T11:19:54.253Z,93988.72
2022-12-12T11:22:59.218Z,93994.06
2022-12-12T11:26:05.100Z,93987.19
2022-12-12T11:29:08.507Z,93973.09
2022-12-12T11:32:15.736Z,93982.97
2022-12-12T11:35:25.072Z,93966.22
2022-12-12T11:38:31.687Z,93960.88
2022-12-12T11:41:58.774Z,93964.66
2022-12-12T11:45:06.035Z,93959.34
2022-12-12T11:48:33.834Z,93949.47
2022-12-12T11:51:39.782Z,93953.22
2022-12-12T11:54:44.116Z,93953.22
2022-12-12T11:58:12.168Z,93953.22
2022-12-12T12:01:22.544Z,93947.56
2022-12-12T12:04:52.863Z,93945.25
2022-12-12T12:08:09.819Z,93947.91
2022-12-12T12:11:27.683Z,93955.88
2022-12-12T12:14:46.953Z,93952.44
2022-12-12T12:18:06.026Z,93948.97
2022-12-12T12:21:31.123Z,93939.44
2022-12-12T12:24:55.085Z,93936.44
2022-12-12T12:28:15.616Z,93942.56
2022-12-12T12:31:25.756Z,93929.56
2022-12-12T12:34:40.280Z,93923.94
2022-12-12T12:37:54.273Z,93918.13
2022-12-12T12:41:27.065Z,93912.81
2022-12-12T12:44:42.386Z,93918.13
2022-12-12T12:47:52.227Z,93907.50
2022-12-12T12:51:04.651Z,93913.94
2022-12-12T12:54:14.554Z,93916.59
2022-12-12T12:57:22.932Z,93923.03
2022-12-12T13:00:31.497Z,93913.47
2022-12-12T13:03:39.161Z,93910.03
2022-12-12T13:06:47.794Z,93912.72
2022-12-12T13:09:59.556Z,93915.69
2022-12-12T13:13:08.666Z,93910.81
2022-12-12T13:16:17.014Z,93911.16
2022-12-12T13:19:30.672Z,93921.81
2022-12-12T13:22:44.770Z,93914.59
2022-12-12T13:25:56.677Z,93917.25
2022-12-12T13:29:05.260Z,93914.59
2022-12-12T13:33:01.432Z,93918.38
2022-12-12T13:36:12.629Z,93923.03
2022-12-12T13:39:26.707Z,93929.47
2022-12-12T13:42:53.195Z,93915.69
2022-12-12T13:45:56.459Z,93915.69
2022-12-12T13:49:11.939Z,93915.69
2022-12-12T13:52:30.832Z,93930.91
2022-12-12T13:55:34.077Z,93933.22
2022-12-12T13:58:37.120Z,93931.22
2022-12-12T14:01:41.295Z,93946.88
2022-12-12T14:04:47.956Z,93946.88
2022-12-12T14:07:53.285Z,93942.31
2022-12-12T14:10:59.991Z,93942.66
2022-12-12T14:14:09.076Z,93939.22
2022-12-12T14:17:22.126Z,93940.00
2022-12-12T14:20:31.298Z,93947.19
2022-12-12T14:23:36.274Z,93946.09
2022-12-12T14:26:51.629Z,93955.19
2022-12-12T14:29:54.650Z,93969.59
2022-12-12T14:33:10.101Z,93956.28
2022-12-12T14:36:31.848Z,93950.97
2022-12-12T14:39:58.317Z,93954.75
2022-12-12T14:43:20.660Z,93947.88
2022-12-12T14:46:25.535Z,93947.09
2022-12-12T14:49:28.637Z,93932.66
2022-12-12T14:52:33.123Z,93934.88
2022-12-12T14:55:36.153Z,93922.34
2022-12-12T14:58:42.663Z,93928.13
2022-12-12T15:01:48.326Z,93931.91
2022-12-12T15:04:55.954Z,93923.91
2022-12-12T15:08:02.626Z,93939.09
2022-12-12T15:11:05.955Z,93928.47
2022-12-12T15:14:19.267Z,93936.44
2022-12-12T15:17:26.726Z,93934.09
2022-12-12T15:20:32.201Z,93937.53
2022-12-12T15:23:36.657Z,93940.22
2022-12-12T15:26:39.752Z,93948.19
2022-12-12T15:29:43.992Z,93946.31
2022-12-12T15:32:49.003Z,93948.53
2022-12-12T15:35:59.565Z,93948.53
2022-12-12T15:39:15.728Z,93949.31
2022-12-12T15:42:18.795Z,93947.41
2022-12-12T15:45:29.386Z,93929.13
2022-12-12T15:48:32.362Z,93932.22
2022-12-12T15:51:35.475Z,93932.56
2022-12-12T15:54:47.304Z,93930.66
2022-12-12T15:57:53.280Z,93945.53
2022-12-12T16:01:04.432Z,93940.97
2022-12-12T16:04:23.726Z,93963.06
2022-12-12T16:07:26.759Z,93962.72
2022-12-12T16:10:31.227Z,93969.59
2022-12-12T16:13:39.334Z,93977.25
2022-12-12T16:16:48.120Z,93984.81
2022-12-12T16:19:56.343Z,93985.56
2022-12-12T16:23:11.746Z,93984.91
2022-12-12T16:26:16.203Z,94010.31
2022-12-12T16:29:19.287Z,94012.19
2022-12-12T16:32:23.651Z,94017.53
2022-12-12T16:35:26.793Z,94026.28
2022-12-12T16:38:30.527Z,94019.41
2022-12-12T16:41:35.276Z,94026.84
2022-12-12T16:44:38.328Z,94025.22
2022-12-12T16:47:42.155Z,94034.78
2022-12-12T16:50:45.716Z,94040.22
2022-12-12T16:53:48.986Z,94047.31
2022-12-12T16:56:54.152Z,94045.44
2022-12-12T16:59:57.116Z,94059.84
2022-12-12T17:03:00.225Z,94056.09
2022-12-12T17:06:03.452Z,94061.53
2022-12-12T17:09:06.489Z,94076.06
2022-12-12T17:12:12.940Z,94083.94
2022-12-12T17:15:21.222Z,94077.50
2022-12-12T17:18:24.804Z,94088.16
2022-12-12T17:21:27.864Z,94084.72
2022-12-12T17:24:31.200Z,94091.91
2022-12-12T17:27:35.800Z,94106.47
2022-12-12T17:30:40.519Z,94096.91
2022-12-12T17:33:50.609Z,94118.44
2022-12-12T17:36:54.232Z,94112.50
2022-12-12T17:39:57.428Z,94120.38
2022-12-12T17:43:03.971Z,94125.91
2022-12-12T17:46:09.710Z,94116.22
2022-12-12T17:49:12.760Z,94144.06
2022-12-12T17:52:16.098Z,94141.88
2022-12-12T17:55:55.058Z,94147.00
2022-12-12T17:58:45.426Z,94159.97
2022-12-12T18:01:53.942Z,94171.41
2022-12-12T18:04:57.122Z,94166.72
2022-12-12T18:08:01.526Z,94174.38
2022-12-12T18:11:07.668Z,94179.72
2022-12-12T18:14:15.463Z,94188.16
2022-12-12T18:17:18.543Z,94196.59
2022-12-12T18:20:22.797Z,94202.41
2022-12-12T18:23:28.398Z,94213.63
2022-12-12T18:26:31.459Z,94209.66
2022-12-12T18:29:35.940Z,94212.03
2022-12-12T18:32:38.986Z,94237.56
2022-12-12T18:35:41.949Z,94226.13
2022-12-12T18:38:47.774Z,94238.34
2022-12-12T18:41:52.136Z,94240.72
2022-12-12T18:44:56.612Z,94241.78
2022-12-12T18:47:59.567Z,94236.16
2022-12-12T18:51:06.532Z,94241.16
2022-12-12T18:54:14.608Z,94255.59
2022-12-12T18:57:18.299Z,94250.59
2022-12-12T19:00:23.094Z,94259.34
2022-12-12T19:03:26.135Z,94254.03
2022-12-12T19:06:33.904Z,94253.53
2022-12-12T19:09:36.977Z,94258.88
2022-12-12T19:12:40.136Z,94260.44
2022-12-12T19:15:44.603Z,94255.09
2022-12-12T19:18:48.147Z,94255.91
2022-12-12T19:21:52.387Z,94246.03
2022-12-12T19:24:55.428Z,94246.66
2022-12-12T19:27:59.787Z,94244.00
2022-12-12T19:31:07.897Z,94244.94
2022-12-12T19:34:14.057Z,94247.16
2022-12-12T19:37:17.132Z,94249.34
2022-12-12T19:40:20.385Z,94254.69
2022-12-12T19:43:23.396Z,94247.81
2022-12-12T19:46:31.022Z,94248.44
2022-12-12T19:49:34.184Z,94253.00
2022-12-12T19:52:37.298Z,94253.00
2022-12-12T19:55:47.675Z,94247.34
2022-12-12T19:58:51.119Z,94251.13
2022-12-12T20:01:55.751Z,94237.81
2022-12-12T20:04:58.889Z,94239.69
2022-12-12T20:08:02.020Z,94247.19
2022-12-12T20:11:06.380Z,94255.19
2022-12-12T20:14:12.788Z,94253.63
2022-12-12T20:17:17.250Z,94261.59
2022-12-12T20:20:20.253Z,94266.59
2022-12-12T20:23:23.306Z,94272.91
2022-12-12T20:26:28.349Z,94273.88
2022-12-12T20:29:32.077Z,94284.06
2022-12-12T20:32:36.556Z,94302.69
2022-12-12T20:35:39.591Z,94308.34
2022-12-12T20:38:43.034Z,94311.00
2022-12-12T20:41:46.414Z,94312.13
2022-12-12T20:44:50.459Z,94309.44
2022-12-12T20:47:54.859Z,94309.44
2022-12-12T20:50:59.324Z,94311.66
2022-12-12T20:54:04.779Z,94311.66
2022-12-12T20:57:07.808Z,94314.59
2022-12-12T21:00:12.860Z,94323.38
2022-12-12T21:03:17.600Z,94331.34
2022-12-12T21:06:23.319Z,94321.81
2022-12-12T21:09:27.004Z,94338.88
2022-12-12T21:12:30.357Z,94337.78
2022-12-12T21:15:33.476Z,94343.09
2022-12-12T21:18:38.503Z,94344.22
2022-12-12T21:21:43.259Z,94349.53
2022-12-12T21:24:46.339Z,94344.22
2022-12-12T21:27:49.361Z,94357.06
2022-12-12T21:30:52.494Z,94359.72
2022-12-12T21:33:57.319Z,94351.72
2022-12-12T21:37:00.337Z,94360.81
2022-12-12T21:40:03.420Z,94376.00
2022-12-12T21:43:06.438Z,94361.13
2022-12-12T21:46:12.393Z,94355.03
2022-12-12T21:49:30.649Z,94363.03
2022-12-12T21:52:33.636Z,94356.59
2022-12-12T21:55:38.157Z,94355.03
2022-12-12T21:58:43.142Z,94356.91
2022-12-12T22:01:46.190Z,94356.91
2022-12-12T22:04:50.605Z,94347.38
2022-12-12T22:07:53.709Z,94350.50
2022-12-12T22:11:00.242Z,94351.59
2022-12-12T22:14:03.531Z,94358.03
2022-12-12T22:17:07.001Z,94368.34
2022-12-12T22:20:12.869Z,94365.22
2022-12-12T22:23:16.538Z,94359.59
2022-12-12T22:26:22.848Z,94372.44
2022-12-12T22:29:25.835Z,94369.44
2022-12-12T22:32:29.723Z,94367.88
2022-12-12T22:35:34.095Z,94370.53
2022-12-12T22:38:38.612Z,94374.31
2022-12-12T22:41:41.760Z,94378.84
2022-12-12T22:44:44.780Z,94378.84
2022-12-12T22:47:47.824Z,94377.75
2022-12-12T22:50:52.193Z,94386.06
2022-12-12T22:53:56.993Z,94397.16
2022-12-12T22:57:00.082Z,94402.03
2022-12-12T23:00:03.140Z,94407.34
2022-12-12T23:03:06.175Z,94406.09
2022-12-12T23:06:13.821Z,94412.22
2022-12-12T23:09:22.704Z,94416.44
2022-12-12T23:12:25.783Z,94411.75
2022-12-12T23:15:29.013Z,94414.09
2022-12-12T23:18:32.117Z,94416.75
2022-12-12T23:21:38.150Z,94415.66
2022-12-12T23:24:41.249Z,94421.28
2022-12-12T23:27:44.411Z,94419.41
2022-12-12T23:30:47.460Z,94415.97
2022-12-12T23:33:53.575Z,94403.75
2022-12-12T23:36:58.227Z,94412.53
2022-12-12T23:40:02.292Z,94420.50
2022-12-12T23:43:05.320Z,94415.97
2022-12-12T23:46:28.229Z,94418.63
2022-12-12T23:49:31.536Z,94427.72
2022-12-12T23:52:35.915Z,94436.47
2022-12-12T23:55:38.919Z,94435.69
2022-12-12T23:58:41.991Z,94443.69
